createdAt,value
2022-09-23T00:01:11.718Z,11.49
2022-09-23T00:03:47.650Z,11.50
2022-09-23T00:06:23.491Z,11.46
2022-09-23T00:08:52.275Z,11.42
2022-09-23T00:11:22.760Z,11.39
2022-09-23T00:13:52.364Z,11.35
2022-09-23T00:16:26.087Z,11.36
2022-09-23T00:18:53.235Z,11.35
2022-09-23T00:21:22.026Z,11.41
2022-09-23T00:23:50.424Z,11.43
2022-09-23T00:26:20.611Z,11.42
2022-09-23T00:28:49.005Z,11.26
2022-09-23T00:31:23.517Z,11.41
2022-09-23T00:33:59.937Z,11.37
2022-09-23T00:36:28.860Z,11.38
2022-09-23T00:38:56.115Z,11.41
2022-09-23T00:41:23.857Z,11.38
2022-09-23T00:44:02.015Z,11.31
2022-09-23T00:46:35.687Z,11.34
2022-09-23T00:49:17.957Z,11.29
2022-09-23T00:51:54.358Z,11.14
2022-09-23T00:54:24.696Z,11.22
2022-09-23T00:56:52.012Z,11.28
2022-09-23T00:59:21.041Z,11.23
2022-09-23T01:01:50.239Z,11.17
2022-09-23T01:04:17.349Z,11.16
2022-09-23T01:06:44.649Z,11.15
2022-09-23T01:09:11.718Z,11.00
2022-09-23T01:12:04.535Z,11.03
2022-09-23T01:14:48.737Z,11.05
2022-09-23T01:17:36.879Z,10.99
2022-09-23T01:20:07.110Z,10.97
2022-09-23T01:22:49.859Z,10.98
2022-09-23T01:25:16.947Z,10.98
2022-09-23T01:27:58.329Z,10.86
2022-09-23T01:30:31.498Z,10.78
2022-09-23T01:33:20.025Z,10.68
2022-09-23T01:36:23.984Z,10.70
2022-09-23T01:39:13.487Z,10.70
2022-09-23T01:42:09.954Z,10.70
2022-09-23T01:44:43.225Z,10.55
2022-09-23T01:47:23.316Z,10.57
2022-09-23T01:49:59.093Z,10.51
2022-09-23T01:52:44.960Z,10.51
2022-09-23T01:55:38.523Z,10.49
2022-09-23T01:58:12.787Z,10.44
2022-09-23T02:00:45.584Z,10.27
2022-09-23T02:03:28.432Z,10.39
2022-09-23T02:06:10.180Z,10.43
2022-09-23T02:08:58.535Z,10.42
2022-09-23T02:11:25.739Z,10.38
2022-09-23T02:14:02.943Z,10.31
2022-09-23T02:16:36.264Z,10.21
2022-09-23T02:19:23.605Z,10.27
2022-09-23T02:21:59.067Z,10.25
2022-09-23T02:24:32.276Z,10.13
2022-09-23T02:27:12.252Z,9.96
2022-09-23T02:29:57.460Z,10.04
2022-09-23T02:32:53.915Z,10.04
2022-09-23T02:35:44.492Z,10.00
2022-09-23T02:38:37.714Z,9.81
2022-09-23T02:41:11.110Z,9.94
2022-09-23T02:43:57.926Z,9.93
2022-09-23T02:46:25.201Z,9.99
2022-09-23T02:48:57.476Z,9.97
2022-09-23T02:51:25.971Z,9.93
2022-09-23T02:53:56.541Z,9.98
2022-09-23T02:56:23.834Z,9.91
2022-09-23T02:58:54.520Z,9.83
2022-09-23T03:01:39.871Z,9.88
2022-09-23T03:04:18.961Z,9.81
2022-09-23T03:07:08.191Z,9.79
2022-09-23T03:10:07.430Z,9.81
2022-09-23T03:12:36.367Z,9.78
2022-09-23T03:15:57.438Z,9.77
2022-09-23T03:18:39.975Z,9.65
2022-09-23T03:21:28.483Z,9.58
2022-09-23T03:24:01.113Z,9.52
2022-09-23T03:26:32.408Z,9.36
2022-09-23T03:29:04.259Z,9.47
2022-09-23T03:31:33.756Z,9.61
2022-09-23T03:34:06.049Z,9.60
2022-09-23T03:36:54.051Z,9.57
2022-09-23T03:39:33.444Z,9.56
2022-09-23T03:42:07.017Z,9.45
2022-09-23T03:44:39.275Z,9.55
2022-09-23T03:47:07.104Z,9.53
2022-09-23T03:49:39.796Z,9.47
2022-09-23T03:52:07.629Z,9.49
2022-09-23T03:54:34.906Z,9.45
2022-09-23T03:57:03.271Z,9.46
2022-09-23T03:59:31.274Z,9.39
2022-09-23T04:02:01.024Z,9.30
2022-09-23T04:04:29.375Z,9.33
2022-09-23T04:06:57.669Z,9.22
2022-09-23T04:09:24.904Z,9.40
2022-09-23T04:11:53.717Z,9.39
2022-09-23T04:14:23.175Z,9.37
2022-09-23T04:16:51.328Z,9.10
2022-09-23T04:19:19.765Z,9.27
2022-09-23T04:21:47.851Z,9.23
2022-09-23T04:24:16.714Z,9.21
2022-09-23T04:26:44.408Z,9.22
2022-09-23T04:29:12.358Z,9.21
2022-09-23T04:31:39.987Z,9.20
2022-09-23T04:34:07.932Z,9.24
2022-09-23T04:36:35.545Z,9.19
2022-09-23T04:39:03.476Z,9.21
2022-09-23T04:41:30.877Z,9.17
2022-09-23T04:43:58.114Z,9.23
2022-09-23T04:46:26.248Z,9.17
2022-09-23T04:48:53.765Z,9.21
2022-09-23T04:51:23.018Z,9.24
2022-09-23T04:53:52.088Z,9.25
2022-09-23T04:56:22.559Z,9.19
2022-09-23T04:58:51.159Z,9.17
2022-09-23T05:01:25.050Z,9.04
2022-09-23T05:03:54.543Z,9.07
2022-09-23T05:06:22.501Z,9.05
2022-09-23T05:08:54.948Z,8.99
2022-09-23T05:11:22.842Z,8.98
2022-09-23T05:13:51.719Z,9.10
2022-09-23T05:16:19.913Z,9.11
2022-09-23T05:18:48.613Z,9.10
2022-09-23T05:21:19.908Z,9.05
2022-09-23T05:23:55.566Z,9.10
2022-09-23T05:26:25.657Z,9.13
2022-09-23T05:28:54.260Z,9.07
2022-09-23T05:31:26.775Z,9.04
2022-09-23T05:33:59.727Z,9.08
2022-09-23T05:36:28.823Z,9.05
2022-09-23T05:38:59.527Z,9.02
2022-09-23T05:41:27.630Z,9.02
2022-09-23T05:43:56.197Z,9.06
2022-09-23T05:46:28.825Z,9.06
2022-09-23T05:49:02.186Z,9.03
2022-09-23T05:51:31.659Z,9.04
2022-09-23T05:54:00.400Z,9.10
2022-09-23T05:56:28.750Z,9.10
2022-09-23T05:58:58.608Z,9.15
2022-09-23T06:01:28.537Z,9.04
2022-09-23T06:03:57.535Z,9.00
2022-09-23T06:06:37.026Z,8.96
2022-09-23T06:09:05.622Z,8.90
2022-09-23T06:11:34.576Z,8.95
2022-09-23T06:14:02.673Z,9.16
2022-09-23T06:16:32.661Z,9.17
2022-09-23T06:19:06.907Z,9.10
2022-09-23T06:21:39.240Z,9.11
2022-09-23T06:24:08.150Z,9.18
2022-09-23T06:26:38.024Z,9.29
2022-09-23T06:29:12.245Z,9.40
2022-09-23T06:31:41.340Z,9.39
2022-09-23T06:34:14.424Z,9.50
2022-09-23T06:36:45.110Z,9.55
2022-09-23T06:39:16.712Z,9.59
2022-09-23T06:41:45.577Z,9.67
2022-09-23T06:44:14.594Z,9.76
2022-09-23T06:46:41.935Z,9.69
2022-09-23T06:49:09.500Z,9.73
2022-09-23T06:51:37.512Z,9.85
2022-09-23T06:54:05.044Z,9.91
2022-09-23T06:56:36.321Z,9.97
2022-09-23T06:59:07.219Z,9.83
2022-09-23T07:01:35.064Z,10.08
2022-09-23T07:04:02.528Z,10.22
2022-09-23T07:06:29.625Z,10.28
2022-09-23T07:08:59.456Z,10.36
2022-09-23T07:11:27.207Z,10.42
2022-09-23T07:13:54.345Z,10.49
2022-09-23T07:16:21.596Z,10.53
2022-09-23T07:18:48.873Z,10.63
2022-09-23T07:21:18.627Z,10.62
2022-09-23T07:23:47.900Z,10.84
2022-09-23T07:26:16.709Z,10.91
2022-09-23T07:28:44.053Z,10.91
2022-09-23T07:31:14.040Z,10.97
2022-09-23T07:33:44.613Z,11.13
2022-09-23T07:36:14.950Z,11.11
2022-09-23T07:38:45.456Z,11.25
2022-09-23T07:41:15.876Z,11.32
2022-09-23T07:43:44.347Z,11.30
2022-09-23T07:46:15.273Z,11.51
2022-09-23T07:48:43.591Z,11.41
2022-09-23T07:51:14.106Z,11.64
2022-09-23T07:53:41.273Z,11.82
2022-09-23T07:56:08.366Z,11.92
2022-09-23T07:58:35.673Z,11.99
2022-09-23T08:01:07.904Z,12.09
2022-09-23T08:03:35.395Z,12.20
2022-09-23T08:06:13.522Z,12.29
2022-09-23T08:08:45.017Z,12.42
2022-09-23T08:11:14.439Z,12.39
2022-09-23T08:13:42.020Z,12.53
2022-09-23T08:16:10.272Z,12.61
2022-09-23T08:18:37.553Z,12.68
2022-09-23T08:21:04.790Z,12.67
2022-09-23T08:23:33.764Z,12.89
2022-09-23T08:26:03.495Z,12.99
2022-09-23T08:28:33.959Z,13.04
2022-09-23T08:31:01.430Z,13.18
2022-09-23T08:33:28.728Z,13.37
2022-09-23T08:36:01.042Z,13.52
2022-09-23T08:38:29.279Z,13.78
2022-09-23T08:41:13.788Z,13.79
2022-09-23T08:43:48.218Z,13.91
2022-09-23T08:46:22.325Z,14.03
2022-09-23T08:48:49.903Z,14.18
2022-09-23T08:51:29.564Z,14.16
2022-09-23T08:53:58.503Z,14.46
2022-09-23T08:56:26.098Z,14.56
2022-09-23T08:59:14.986Z,14.83
2022-09-23T09:01:46.383Z,14.91
2022-09-23T09:04:19.599Z,14.96
2022-09-23T09:10:16.889Z,15.08
2022-09-23T09:13:00.541Z,15.12
2022-09-23T09:15:29.210Z,15.25
2022-09-23T09:18:02.601Z,15.32
2022-09-23T09:20:57.452Z,15.42
2022-09-23T09:23:32.340Z,15.44
2022-09-23T09:26:01.846Z,15.63
2022-09-23T09:28:34.176Z,15.60
2022-09-23T09:31:02.969Z,15.80
2022-09-23T09:34:03.924Z,15.88
2022-09-23T09:36:53.352Z,15.98
2022-09-23T09:39:24.165Z,16.04
2022-09-23T09:41:57.816Z,16.13
2022-09-23T09:44:48.461Z,16.24
2022-09-23T09:47:47.062Z,16.37
2022-09-23T09:50:22.310Z,16.43
2022-09-23T09:52:49.655Z,16.55
2022-09-23T09:55:29.311Z,16.71
2022-09-23T09:58:04.305Z,16.93
2022-09-23T10:00:31.415Z,17.00
2022-09-23T10:03:03.268Z,17.04
2022-09-23T10:05:47.566Z,17.16
2022-09-23T10:08:35.142Z,17.35
2022-09-23T10:11:13.239Z,17.47
2022-09-23T10:13:40.510Z,17.54
2022-09-23T10:16:08.368Z,17.71
2022-09-23T10:18:48.503Z,17.90
2022-09-23T10:21:23.113Z,17.93
2022-09-23T10:23:58.378Z,18.14
2022-09-23T10:26:34.678Z,18.19
2022-09-23T10:29:21.007Z,18.12
2022-09-23T10:31:48.275Z,18.28
2022-09-23T10:34:28.147Z,18.20
2022-09-23T10:37:17.253Z,18.31
2022-09-23T10:40:03.205Z,18.30
2022-09-23T10:43:16.777Z,18.34
2022-09-23T10:46:08.037Z,18.37
2022-09-23T10:49:10.255Z,18.67
2022-09-23T10:52:09.801Z,18.62
2022-09-23T10:55:00.255Z,18.72
2022-09-23T10:57:49.668Z,18.83
2022-09-23T11:00:28.613Z,18.93
2022-09-23T11:03:21.122Z,19.05
2022-09-23T11:06:07.031Z,19.24
2022-09-23T11:09:09.006Z,19.25
2022-09-23T11:11:55.845Z,19.27
2022-09-23T11:14:54.497Z,19.54
2022-09-23T11:17:35.626Z,19.51
2022-09-23T11:20:09.789Z,19.55
2022-09-23T11:22:59.782Z,19.59
2022-09-23T11:25:32.451Z,19.77
2022-09-23T11:28:20.733Z,19.80
2022-09-23T11:31:02.083Z,19.84
2022-09-23T11:33:56.211Z,19.87
2022-09-23T11:36:30.722Z,20.08
2022-09-23T11:39:01.738Z,19.87
2022-09-23T11:41:37.498Z,19.93
2022-09-23T11:44:33.032Z,19.95
2022-09-23T11:47:21.046Z,19.98
2022-09-23T11:49:56.421Z,20.03
2022-09-23T11:52:40.178Z,20.07
2022-09-23T11:55:22.900Z,20.14
2022-09-23T11:58:03.543Z,20.24
2022-09-23T12:00:49.648Z,20.26
2022-09-23T12:03:47.366Z,20.23
2022-09-23T12:06:27.096Z,20.24
2022-09-23T12:08:58.069Z,20.30
2022-09-23T12:11:59.326Z,20.23
2022-09-23T12:14:38.859Z,20.30
2022-09-23T12:17:24.773Z,20.29
2022-09-23T12:19:51.992Z,20.24
2022-09-23T12:22:40.575Z,20.26
2022-09-23T12:25:36.303Z,20.25
2022-09-23T12:28:18.621Z,20.27
2022-09-23T12:30:47.698Z,20.26
2022-09-23T12:33:27.921Z,20.19
2022-09-23T12:36:03.220Z,20.17
2022-09-23T12:38:36.628Z,20.17
2022-09-23T12:41:25.637Z,20.21
2022-09-23T12:44:19.100Z,20.22
2022-09-23T12:46:46.638Z,20.19
2022-09-23T12:49:28.431Z,20.18
2022-09-23T12:52:14.205Z,20.27
2022-09-23T12:54:44.884Z,20.28
2022-09-23T12:57:15.021Z,20.37
2022-09-23T13:00:00.546Z,20.34
2022-09-23T13:02:33.390Z,20.37
2022-09-23T13:05:40.726Z,20.46
2022-09-23T13:08:18.763Z,20.48
2022-09-23T13:10:58.766Z,20.56
2022-09-23T13:13:29.893Z,20.58
2022-09-23T13:16:21.889Z,20.63
2022-09-23T13:18:56.616Z,20.60
2022-09-23T13:21:46.033Z,20.76
2022-09-23T13:24:13.080Z,20.82
2022-09-23T13:26:50.161Z,20.85
2022-09-23T13:29:33.351Z,20.77
2022-09-23T13:32:03.093Z,20.80
2022-09-23T13:34:34.952Z,20.89
2022-09-23T13:37:22.389Z,20.80
2022-09-23T13:39:50.515Z,21.04
2022-09-23T13:42:29.943Z,21.05
2022-09-23T13:45:00.623Z,21.01
2022-09-23T13:47:30.515Z,21.06
2022-09-23T13:49:58.046Z,21.04
2022-09-23T13:52:31.927Z,21.01
2022-09-23T13:54:59.296Z,21.01
2022-09-23T13:57:32.167Z,21.12
2022-09-23T14:00:21.249Z,21.16
2022-09-23T14:02:48.380Z,21.17
2022-09-23T14:05:23.957Z,21.18
2022-09-23T14:07:53.160Z,21.20
2022-09-23T14:10:25.116Z,21.23
2022-09-23T14:12:54.624Z,21.20
2022-09-23T14:15:23.057Z,21.19
2022-09-23T14:17:53.891Z,21.12
2022-09-23T14:20:23.447Z,21.12
2022-09-23T14:23:07.221Z,21.07
2022-09-23T14:25:34.818Z,21.11
2022-09-23T14:28:02.455Z,21.11
2022-09-23T14:30:30.222Z,21.10
2022-09-23T14:33:00.395Z,21.20
2022-09-23T14:35:40.607Z,21.18
2022-09-23T14:38:26.613Z,21.25
2022-09-23T14:41:15.743Z,21.11
2022-09-23T14:44:00.693Z,21.17
2022-09-23T14:46:30.881Z,21.17
2022-09-23T14:49:17.880Z,21.20
2022-09-23T14:51:57.873Z,21.08
2022-09-23T14:54:35.957Z,21.01
2022-09-23T14:57:22.960Z,20.93
2022-09-23T14:59:59.420Z,20.83
2022-09-23T15:02:31.612Z,20.84
2022-09-23T15:05:21.355Z,20.91
2022-09-23T15:07:51.833Z,20.70
2022-09-23T15:10:37.719Z,20.61
2022-09-23T15:13:09.198Z,20.53
2022-09-23T15:15:36.660Z,20.50
2022-09-23T15:18:06.887Z,20.41
2022-09-23T15:20:35.042Z,20.40
2022-09-23T15:23:02.228Z,20.41
2022-09-23T15:25:35.759Z,20.34
2022-09-23T15:28:09.000Z,20.37
2022-09-23T15:30:37.053Z,20.39
2022-09-23T15:33:04.983Z,20.32
2022-09-23T15:35:32.963Z,20.30
2022-09-23T15:38:03.119Z,20.22
2022-09-23T15:40:36.135Z,20.22
2022-09-23T15:43:24.408Z,20.23
2022-09-23T15:45:54.836Z,20.11
2022-09-23T15:48:32.711Z,20.07
2022-09-23T15:51:05.094Z,20.07
2022-09-23T15:53:32.223Z,20.04
2022-09-23T15:55:59.397Z,20.08
2022-09-23T15:58:27.885Z,19.98
2022-09-23T16:00:57.270Z,20.02
2022-09-23T16:03:28.883Z,19.98
2022-09-23T16:06:01.377Z,19.94
2022-09-23T16:08:30.088Z,19.83
2022-09-23T16:10:57.172Z,19.91
2022-09-23T16:13:24.274Z,19.84
2022-09-23T16:15:51.531Z,19.86
2022-09-23T16:18:18.694Z,19.81
2022-09-23T16:20:46.553Z,19.79
2022-09-23T16:23:38.920Z,19.82
2022-09-23T16:26:27.043Z,19.80
2022-09-23T16:28:56.316Z,19.88
2022-09-23T16:31:29.927Z,19.84
2022-09-23T16:33:58.014Z,19.81
2022-09-23T16:36:33.699Z,19.88
2022-09-23T16:39:04.547Z,19.88
2022-09-23T16:41:32.211Z,19.87
2022-09-23T16:44:04.759Z,19.79
2022-09-23T16:46:32.565Z,19.80
2022-09-23T16:49:00.567Z,19.78
2022-09-23T16:51:39.070Z,19.82
2022-09-23T16:54:13.433Z,19.74
2022-09-23T16:56:46.605Z,19.76
2022-09-23T16:59:14.592Z,19.70
2022-09-23T17:02:00.853Z,19.71
2022-09-23T17:04:28.438Z,19.62
2022-09-23T17:06:56.840Z,19.61
2022-09-23T17:09:28.709Z,19.62
2022-09-23T17:12:01.389Z,19.49
2022-09-23T17:14:31.640Z,19.41
2022-09-23T17:16:59.299Z,19.36
2022-09-23T17:19:26.580Z,19.27
2022-09-23T17:21:54.562Z,19.21
2022-09-23T17:24:21.775Z,19.16
2022-09-23T17:26:52.837Z,19.04
2022-09-23T17:29:21.722Z,19.06
2022-09-23T17:31:49.200Z,19.03
2022-09-23T17:34:18.986Z,19.01
2022-09-23T17:36:49.780Z,18.94
2022-09-23T17:39:17.875Z,18.82
2022-09-23T17:41:45.632Z,18.86
2022-09-23T17:44:13.151Z,18.83
2022-09-23T17:46:40.269Z,18.78
2022-09-23T17:49:08.628Z,18.73
2022-09-23T17:51:35.839Z,18.67
2022-09-23T17:54:02.922Z,18.55
2022-09-23T17:56:31.000Z,18.45
2022-09-23T17:59:02.127Z,18.46
2022-09-23T18:01:30.034Z,18.46
2022-09-23T18:03:59.816Z,18.40
2022-09-23T18:06:29.477Z,18.31
2022-09-23T18:08:56.763Z,18.18
2022-09-23T18:11:26.215Z,18.17
2022-09-23T18:13:55.818Z,18.14
2022-09-23T18:16:29.409Z,18.03
2022-09-23T18:19:01.918Z,17.96
2022-09-23T18:21:37.523Z,17.81
2022-09-23T18:24:34.278Z,17.85
2022-09-23T18:26:56.555Z,17.79
2022-09-23T18:29:24.825Z,17.72
2022-09-23T18:31:54.413Z,17.67
2022-09-23T18:34:22.713Z,17.61
2022-09-23T18:36:50.965Z,17.52
2022-09-23T18:39:19.556Z,17.50
2022-09-23T18:41:49.345Z,17.44
2022-09-23T18:44:17.599Z,17.46
2022-09-23T18:46:46.495Z,17.41
2022-09-23T18:49:32.706Z,17.37
2022-09-23T18:52:04.295Z,17.36
2022-09-23T18:54:32.616Z,17.35
2022-09-23T18:57:00.913Z,17.28
2022-09-23T18:59:33.581Z,17.27
2022-09-23T19:02:02.098Z,17.20
2022-09-23T19:04:30.224Z,17.21
2022-09-23T19:06:59.443Z,17.12
2022-09-23T19:09:28.235Z,17.08
2022-09-23T19:11:56.990Z,17.02
2022-09-23T19:14:24.344Z,17.00
2022-09-23T19:16:51.430Z,16.97
2022-09-23T19:19:19.296Z,16.90
2022-09-23T19:21:47.152Z,16.74
2022-09-23T19:24:20.375Z,16.67
2022-09-23T19:26:48.887Z,16.59
2022-09-23T19:29:22.197Z,16.51
2022-09-23T19:31:50.080Z,16.39
2022-09-23T19:34:18.382Z,16.35
2022-09-23T19:36:47.918Z,16.27
2022-09-23T19:39:21.291Z,16.16
2022-09-23T19:41:49.159Z,16.10
2022-09-23T19:44:16.782Z,15.98
2022-09-23T19:46:45.910Z,15.89
2022-09-23T19:49:13.567Z,15.80
2022-09-23T19:51:41.553Z,15.77
2022-09-23T19:54:09.400Z,15.62
2022-09-23T19:56:38.865Z,15.60
2022-09-23T19:59:09.484Z,15.51
2022-09-23T20:01:37.551Z,15.42
2022-09-23T20:04:10.303Z,15.42
2022-09-23T20:06:41.928Z,15.30
2022-09-23T20:09:10.509Z,15.29
2022-09-23T20:11:38.944Z,15.24
2022-09-23T20:14:07.047Z,15.18
2022-09-23T20:16:37.421Z,15.17
2022-09-23T20:19:07.499Z,15.10
2022-09-23T20:21:35.616Z,15.00
2022-09-23T20:24:08.037Z,14.94
2022-09-23T20:26:54.244Z,14.88
2022-09-23T20:29:21.669Z,14.82
2022-09-23T20:31:49.712Z,14.76
2022-09-23T20:34:18.782Z,14.71
2022-09-23T20:36:45.916Z,14.71
2022-09-23T20:39:13.442Z,14.62
2022-09-23T20:41:40.795Z,14.61
2022-09-23T20:44:12.799Z,14.53
2022-09-23T20:46:46.982Z,14.48
2022-09-23T20:49:16.255Z,14.45
2022-09-23T20:51:43.878Z,14.39
2022-09-23T20:54:12.375Z,14.33
2022-09-23T20:56:40.012Z,14.35
2022-09-23T20:59:07.099Z,14.37
2022-09-23T21:01:36.655Z,14.29
2022-09-23T21:04:06.284Z,14.33
2022-09-23T21:06:37.627Z,14.24
2022-09-23T21:09:06.527Z,14.18
2022-09-23T21:11:34.059Z,14.18
2022-09-23T21:14:01.781Z,14.11
2022-09-23T21:16:29.976Z,14.04
2022-09-23T21:18:59.010Z,13.95
2022-09-23T21:21:26.825Z,13.88
2022-09-23T21:23:54.005Z,13.80
2022-09-23T21:26:26.408Z,13.77
2022-09-23T21:28:59.382Z,13.50
2022-09-23T21:31:33.848Z,13.63
2022-09-23T21:34:09.615Z,13.56
2022-09-23T21:36:39.049Z,13.45
2022-09-23T21:39:07.129Z,13.43
2022-09-23T21:41:34.793Z,13.41
2022-09-23T21:44:04.830Z,13.28
2022-09-23T21:46:34.006Z,13.37
2022-09-23T21:49:03.560Z,13.35
2022-09-23T21:51:40.883Z,13.30
2022-09-23T21:54:16.491Z,13.21
2022-09-23T21:56:44.879Z,13.17
2022-09-23T21:59:12.492Z,13.12
2022-09-23T22:01:44.923Z,13.09
2022-09-23T22:04:19.081Z,13.07
2022-09-23T22:06:46.736Z,13.10
2022-09-23T22:09:17.383Z,13.03
2022-09-23T22:12:03.344Z,12.98
2022-09-23T22:14:33.749Z,12.91
2022-09-23T22:17:04.260Z,12.95
2022-09-23T22:19:44.198Z,12.87
2022-09-23T22:22:17.773Z,12.81
2022-09-23T22:24:47.047Z,12.76
2022-09-23T22:27:16.745Z,12.69
2022-09-23T22:30:04.613Z,12.75
2022-09-23T22:32:40.862Z,12.66
2022-09-23T22:35:13.017Z,12.65
2022-09-23T22:37:40.156Z,12.56
2022-09-23T22:40:10.755Z,12.55
2022-09-23T22:42:38.200Z,12.54
2022-09-23T22:45:06.051Z,12.44
2022-09-23T22:47:37.938Z,12.45
2022-09-23T22:50:09.360Z,12.38
2022-09-23T22:52:37.130Z,12.33
2022-09-23T22:55:05.171Z,12.34
2022-09-23T22:57:32.239Z,12.32
2022-09-23T22:59:59.406Z,12.31
2022-09-23T23:02:26.558Z,12.23
2022-09-23T23:04:56.538Z,12.21
2022-09-23T23:07:23.633Z,12.23
2022-09-23T23:09:51.522Z,12.17
2022-09-23T23:12:20.619Z,12.20
2022-09-23T23:14:48.544Z,12.14
2022-09-23T23:17:15.948Z,12.13
2022-09-23T23:19:43.085Z,12.02
2022-09-23T23:22:10.296Z,12.14
2022-09-23T23:24:37.486Z,12.18
2022-09-23T23:27:04.718Z,12.12
2022-09-23T23:29:31.853Z,12.17
2022-09-23T23:31:58.937Z,12.12
2022-09-23T23:34:26.072Z,12.09
2022-09-23T23:36:55.370Z,12.11
2022-09-23T23:39:24.573Z,12.09
2022-09-23T23:41:56.608Z,12.08
2022-09-23T23:44:25.760Z,11.95
2022-09-23T23:46:54.262Z,11.95
2022-09-23T23:49:21.926Z,12.02
2022-09-23T23:51:49.312Z,11.91
2022-09-23T23:54:16.468Z,11.87
2022-09-23T23:56:44.067Z,11.84
2022-09-23T23:59:11.483Z,11.81
